sensor_id;sensor_type;location;lat;lon;timestamp;P1;durP1;ratioP1;P2;durP2;ratioP2
19535;SDS011;9913;51.168;4.124;2022-09-30T00:01:35;8.77;;;6.57;;
19535;SDS011;9913;51.168;4.124;2022-09-30T00:04:08;10.23;;;7.27;;
19535;SDS011;9913;51.168;4.124;2022-09-30T00:06:40;8.10;;;7.03;;
19535;SDS011;9913;51.168;4.124;2022-09-30T00:09:08;10.10;;;7.50;;
19535;SDS011;9913;51.168;4.124;2022-09-30T00:11:39;8.90;;;7.43;;
19535;SDS011;9913;51.168;4.124;2022-09-30T00:14:11;11.20;;;7.60;;
19535;SDS011;9913;51.168;4.124;2022-09-30T00:16:42;9.37;;;7.77;;
19535;SDS011;9913;51.168;4.124;2022-09-30T00:19:12;9.60;;;7.87;;
19535;SDS011;9913;51.168;4.124;2022-09-30T00:21:41;10.10;;;7.73;;
19535;SDS011;9913;51.168;4.124;2022-09-30T00:24:10;11.23;;;8.20;;
19535;SDS011;9913;51.168;4.124;2022-09-30T00:26:38;8.83;;;7.50;;
19535;SDS011;9913;51.168;4.124;2022-09-30T00:29:06;12.83;;;8.33;;
19535;SDS011;9913;51.168;4.124;2022-09-30T00:31:34;10.60;;;8.10;;
19535;SDS011;9913;51.168;4.124;2022-09-30T00:34:03;10.17;;;7.63;;
19535;SDS011;9913;51.168;4.124;2022-09-30T00:36:36;14.20;;;7.13;;
19535;SDS011;9913;51.168;4.124;2022-09-30T00:39:10;10.37;;;7.43;;
19535;SDS011;9913;51.168;4.124;2022-09-30T00:41:40;9.17;;;7.93;;
19535;SDS011;9913;51.168;4.124;2022-09-30T00:47:33;9.00;;;6.70;;
19535;SDS011;9913;51.168;4.124;2022-09-30T00:50:09;11.57;;;7.40;;
19535;SDS011;9913;51.168;4.124;2022-09-30T00:53:03;10.53;;;8.50;;
19535;SDS011;9913;51.168;4.124;2022-09-30T00:55:38;10.43;;;8.60;;
19535;SDS011;9913;51.168;4.124;2022-09-30T00:58:15;8.47;;;7.13;;
19535;SDS011;9913;51.168;4.124;2022-09-30T01:00:48;8.57;;;7.57;;
19535;SDS011;9913;51.168;4.124;2022-09-30T01:03:18;10.53;;;7.87;;
19535;SDS011;9913;51.168;4.124;2022-09-30T01:05:48;10.37;;;7.43;;
19535;SDS011;9913;51.168;4.124;2022-09-30T01:08:19;11.77;;;8.40;;
19535;SDS011;9913;51.168;4.124;2022-09-30T01:10:47;10.93;;;8.67;;
19535;SDS011;9913;51.168;4.124;2022-09-30T01:13:16;15.47;;;9.23;;
19535;SDS011;9913;51.168;4.124;2022-09-30T01:15:57;13.57;;;9.60;;
19535;SDS011;9913;51.168;4.124;2022-09-30T01:18:36;12.53;;;8.93;;
19535;SDS011;9913;51.168;4.124;2022-09-30T01:21:34;11.23;;;8.67;;
19535;SDS011;9913;51.168;4.124;2022-09-30T01:24:31;13.47;;;8.97;;
19535;SDS011;9913;51.168;4.124;2022-09-30T01:27:11;10.40;;;8.20;;
19535;SDS011;9913;51.168;4.124;2022-09-30T01:29:57;12.23;;;10.03;;
19535;SDS011;9913;51.168;4.124;2022-09-30T01:32:41;10.00;;;7.63;;
19535;SDS011;9913;51.168;4.124;2022-09-30T01:35:18;11.40;;;8.17;;
19535;SDS011;9913;51.168;4.124;2022-09-30T01:37:56;10.43;;;8.00;;
19535;SDS011;9913;51.168;4.124;2022-09-30T01:40:32;11.00;;;8.20;;
19535;SDS011;9913;51.168;4.124;2022-09-30T01:43:06;11.23;;;8.27;;
19535;SDS011;9913;51.168;4.124;2022-09-30T01:45:41;9.97;;;8.03;;
19535;SDS011;9913;51.168;4.124;2022-09-30T01:48:16;12.47;;;9.33;;
19535;SDS011;9913;51.168;4.124;2022-09-30T01:50:49;12.60;;;9.00;;
19535;SDS011;9913;51.168;4.124;2022-09-30T01:53:22;12.33;;;8.70;;
19535;SDS011;9913;51.168;4.124;2022-09-30T01:55:55;9.70;;;8.20;;
19535;SDS011;9913;51.168;4.124;2022-09-30T01:58:31;11.83;;;8.20;;
19535;SDS011;9913;51.168;4.124;2022-09-30T02:01:07;11.47;;;9.13;;
19535;SDS011;9913;51.168;4.124;2022-09-30T02:03:43;10.47;;;8.97;;
19535;SDS011;9913;51.168;4.124;2022-09-30T02:06:15;13.27;;;9.67;;
19535;SDS011;9913;51.168;4.124;2022-09-30T02:08:46;12.97;;;9.60;;
19535;SDS011;9913;51.168;4.124;2022-09-30T02:11:19;14.33;;;9.40;;
19535;SDS011;9913;51.168;4.124;2022-09-30T02:13:52;14.13;;;9.63;;
19535;SDS011;9913;51.168;4.124;2022-09-30T02:16:27;10.93;;;9.27;;
19535;SDS011;9913;51.168;4.124;2022-09-30T02:19:03;13.27;;;8.67;;
19535;SDS011;9913;51.168;4.124;2022-09-30T02:21:38;11.93;;;8.63;;
19535;SDS011;9913;51.168;4.124;2022-09-30T02:24:13;13.50;;;9.77;;
19535;SDS011;9913;51.168;4.124;2022-09-30T02:26:44;14.27;;;10.07;;
19535;SDS011;9913;51.168;4.124;2022-09-30T02:29:17;15.07;;;9.50;;
19535;SDS011;9913;51.168;4.124;2022-09-30T02:31:50;11.67;;;8.93;;
19535;SDS011;9913;51.168;4.124;2022-09-30T02:34:22;13.40;;;9.20;;
19535;SDS011;9913;51.168;4.124;2022-09-30T02:36:54;15.40;;;9.70;;
19535;SDS011;9913;51.168;4.124;2022-09-30T02:39:28;11.57;;;8.63;;
19535;SDS011;9913;51.168;4.124;2022-09-30T02:42:03;13.47;;;8.97;;
19535;SDS011;9913;51.168;4.124;2022-09-30T02:44:38;11.10;;;8.43;;
19535;SDS011;9913;51.168;4.124;2022-09-30T02:47:09;11.87;;;8.10;;
19535;SDS011;9913;51.168;4.124;2022-09-30T02:49:44;13.50;;;8.97;;
19535;SDS011;9913;51.168;4.124;2022-09-30T02:52:20;12.03;;;8.50;;
19535;SDS011;9913;51.168;4.124;2022-09-30T02:54:56;11.97;;;8.87;;
19535;SDS011;9913;51.168;4.124;2022-09-30T02:57:34;14.17;;;9.27;;
19535;SDS011;9913;51.168;4.124;2022-09-30T03:00:06;12.47;;;8.53;;
19535;SDS011;9913;51.168;4.124;2022-09-30T03:02:38;11.43;;;7.80;;
19535;SDS011;9913;51.168;4.124;2022-09-30T03:05:08;13.03;;;8.50;;
19535;SDS011;9913;51.168;4.124;2022-09-30T03:07:38;12.67;;;8.57;;
19535;SDS011;9913;51.168;4.124;2022-09-30T03:10:11;13.03;;;8.80;;
19535;SDS011;9913;51.168;4.124;2022-09-30T03:12:42;9.37;;;7.70;;
19535;SDS011;9913;51.168;4.124;2022-09-30T03:15:30;11.37;;;8.03;;
19535;SDS011;9913;51.168;4.124;2022-09-30T03:18:16;11.93;;;8.43;;
19535;SDS011;9913;51.168;4.124;2022-09-30T03:21:03;10.97;;;9.13;;
19535;SDS011;9913;51.168;4.124;2022-09-30T03:23:49;13.23;;;9.20;;
19535;SDS011;9913;51.168;4.124;2022-09-30T03:26:39;14.13;;;9.80;;
19535;SDS011;9913;51.168;4.124;2022-09-30T03:29:16;14.10;;;9.53;;
19535;SDS011;9913;51.168;4.124;2022-09-30T03:31:53;15.40;;;9.83;;
19535;SDS011;9913;51.168;4.124;2022-09-30T03:34:30;13.10;;;9.60;;
19535;SDS011;9913;51.168;4.124;2022-09-30T03:37:10;12.63;;;8.87;;
19535;SDS011;9913;51.168;4.124;2022-09-30T03:39:49;13.77;;;9.93;;
19535;SDS011;9913;51.168;4.124;2022-09-30T03:42:23;11.50;;;9.43;;
19535;SDS011;9913;51.168;4.124;2022-09-30T03:44:56;12.10;;;9.13;;
19535;SDS011;9913;51.168;4.124;2022-09-30T03:47:30;11.80;;;9.33;;
19535;SDS011;9913;51.168;4.124;2022-09-30T03:50:03;12.97;;;9.23;;
19535;SDS011;9913;51.168;4.124;2022-09-30T03:52:36;14.23;;;9.90;;
19535;SDS011;9913;51.168;4.124;2022-09-30T03:55:05;14.63;;;9.93;;
19535;SDS011;9913;51.168;4.124;2022-09-30T03:57:37;14.63;;;10.50;;
19535;SDS011;9913;51.168;4.124;2022-09-30T04:00:06;14.67;;;9.70;;
19535;SDS011;9913;51.168;4.124;2022-09-30T04:02:34;15.93;;;12.07;;
19535;SDS011;9913;51.168;4.124;2022-09-30T04:05:04;14.23;;;11.73;;
19535;SDS011;9913;51.168;4.124;2022-09-30T04:07:33;18.17;;;11.53;;
19535;SDS011;9913;51.168;4.124;2022-09-30T04:10:03;14.60;;;10.40;;
19535;SDS011;9913;51.168;4.124;2022-09-30T04:12:32;16.33;;;11.53;;
19535;SDS011;9913;51.168;4.124;2022-09-30T04:15:00;17.73;;;11.57;;
19535;SDS011;9913;51.168;4.124;2022-09-30T04:17:29;14.10;;;10.33;;
19535;SDS011;9913;51.168;4.124;2022-09-30T04:19:57;15.47;;;9.73;;
19535;SDS011;9913;51.168;4.124;2022-09-30T04:22:25;13.37;;;10.17;;
19535;SDS011;9913;51.168;4.124;2022-09-30T04:24:53;14.03;;;10.43;;
19535;SDS011;9913;51.168;4.124;2022-09-30T04:27:23;16.77;;;10.93;;
19535;SDS011;9913;51.168;4.124;2022-09-30T04:29:52;13.67;;;10.87;;
19535;SDS011;9913;51.168;4.124;2022-09-30T04:32:20;13.50;;;11.07;;
19535;SDS011;9913;51.168;4.124;2022-09-30T04:34:51;17.63;;;11.70;;
19535;SDS011;9913;51.168;4.124;2022-09-30T04:37:19;16.67;;;11.03;;
19535;SDS011;9913;51.168;4.124;2022-09-30T04:39:47;16.60;;;11.47;;
19535;SDS011;9913;51.168;4.124;2022-09-30T04:42:16;20.37;;;13.47;;
19535;SDS011;9913;51.168;4.124;2022-09-30T04:44:46;16.10;;;11.37;;
19535;SDS011;9913;51.168;4.124;2022-09-30T04:47:14;14.97;;;10.67;;
19535;SDS011;9913;51.168;4.124;2022-09-30T04:49:42;17.50;;;11.63;;
19535;SDS011;9913;51.168;4.124;2022-09-30T04:52:10;17.40;;;11.80;;
19535;SDS011;9913;51.168;4.124;2022-09-30T04:54:38;16.73;;;11.60;;
19535;SDS011;9913;51.168;4.124;2022-09-30T04:57:07;17.30;;;11.13;;
19535;SDS011;9913;51.168;4.124;2022-09-30T04:59:35;14.63;;;11.13;;
19535;SDS011;9913;51.168;4.124;2022-09-30T05:02:05;17.53;;;11.73;;
19535;SDS011;9913;51.168;4.124;2022-09-30T05:04:36;16.23;;;11.53;;
19535;SDS011;9913;51.168;4.124;2022-09-30T05:07:04;16.17;;;11.73;;
19535;SDS011;9913;51.168;4.124;2022-09-30T05:09:34;19.33;;;12.23;;
19535;SDS011;9913;51.168;4.124;2022-09-30T05:12:02;17.90;;;12.20;;
19535;SDS011;9913;51.168;4.124;2022-09-30T05:14:31;17.00;;;11.93;;
19535;SDS011;9913;51.168;4.124;2022-09-30T05:17:00;16.17;;;11.83;;
19535;SDS011;9913;51.168;4.124;2022-09-30T05:19:30;15.93;;;11.17;;
19535;SDS011;9913;51.168;4.124;2022-09-30T05:21:58;15.47;;;11.90;;
19535;SDS011;9913;51.168;4.124;2022-09-30T05:24:26;16.90;;;12.40;;
19535;SDS011;9913;51.168;4.124;2022-09-30T05:26:55;16.90;;;12.53;;
19535;SDS011;9913;51.168;4.124;2022-09-30T05:29:23;17.30;;;12.70;;
19535;SDS011;9913;51.168;4.124;2022-09-30T05:31:52;18.57;;;12.73;;
19535;SDS011;9913;51.168;4.124;2022-09-30T05:34:20;19.23;;;13.57;;
19535;SDS011;9913;51.168;4.124;2022-09-30T05:36:49;16.67;;;13.80;;
19535;SDS011;9913;51.168;4.124;2022-09-30T05:39:18;20.37;;;15.27;;
19535;SDS011;9913;51.168;4.124;2022-09-30T05:41:47;20.00;;;14.77;;
19535;SDS011;9913;51.168;4.124;2022-09-30T05:44:15;20.53;;;14.83;;
19535;SDS011;9913;51.168;4.124;2022-09-30T05:46:44;19.07;;;14.03;;
19535;SDS011;9913;51.168;4.124;2022-09-30T05:49:13;23.03;;;16.37;;
19535;SDS011;9913;51.168;4.124;2022-09-30T05:51:41;23.43;;;16.03;;
19535;SDS011;9913;51.168;4.124;2022-09-30T05:54:11;22.97;;;17.10;;
19535;SDS011;9913;51.168;4.124;2022-09-30T05:56:40;27.23;;;17.47;;
19535;SDS011;9913;51.168;4.124;2022-09-30T05:59:08;22.80;;;15.97;;
19535;SDS011;9913;51.168;4.124;2022-09-30T06:01:36;21.57;;;15.67;;
19535;SDS011;9913;51.168;4.124;2022-09-30T06:04:05;19.40;;;14.73;;
19535;SDS011;9913;51.168;4.124;2022-09-30T06:06:33;18.60;;;14.47;;
19535;SDS011;9913;51.168;4.124;2022-09-30T06:09:01;20.50;;;14.40;;
19535;SDS011;9913;51.168;4.124;2022-09-30T06:11:31;17.53;;;13.60;;
19535;SDS011;9913;51.168;4.124;2022-09-30T06:14:00;20.90;;;13.90;;
19535;SDS011;9913;51.168;4.124;2022-09-30T06:16:28;18.93;;;12.27;;
19535;SDS011;9913;51.168;4.124;2022-09-30T06:18:57;18.97;;;13.93;;
19535;SDS011;9913;51.168;4.124;2022-09-30T06:21:25;19.93;;;14.43;;
19535;SDS011;9913;51.168;4.124;2022-09-30T06:23:54;18.27;;;13.77;;
19535;SDS011;9913;51.168;4.124;2022-09-30T06:26:22;24.57;;;14.70;;
19535;SDS011;9913;51.168;4.124;2022-09-30T06:28:52;19.83;;;14.27;;
19535;SDS011;9913;51.168;4.124;2022-09-30T06:31:20;20.40;;;14.57;;
19535;SDS011;9913;51.168;4.124;2022-09-30T06:33:50;23.80;;;15.33;;
19535;SDS011;9913;51.168;4.124;2022-09-30T06:36:19;21.93;;;15.03;;
19535;SDS011;9913;51.168;4.124;2022-09-30T06:38:47;24.83;;;17.30;;
19535;SDS011;9913;51.168;4.124;2022-09-30T06:41:19;22.27;;;15.07;;
19535;SDS011;9913;51.168;4.124;2022-09-30T06:43:50;21.80;;;15.93;;
19535;SDS011;9913;51.168;4.124;2022-09-30T06:46:27;22.53;;;15.50;;
19535;SDS011;9913;51.168;4.124;2022-09-30T06:48:57;23.07;;;15.20;;
19535;SDS011;9913;51.168;4.124;2022-09-30T06:51:39;22.30;;;17.00;;
19535;SDS011;9913;51.168;4.124;2022-09-30T06:54:08;23.00;;;17.60;;
19535;SDS011;9913;51.168;4.124;2022-09-30T06:56:36;31.60;;;23.20;;
19535;SDS011;9913;51.168;4.124;2022-09-30T06:59:06;45.77;;;29.37;;
19535;SDS011;9913;51.168;4.124;2022-09-30T07:01:34;31.77;;;20.77;;
19535;SDS011;9913;51.168;4.124;2022-09-30T07:04:02;24.87;;;16.27;;
19535;SDS011;9913;51.168;4.124;2022-09-30T07:06:35;41.00;;;28.23;;
19535;SDS011;9913;51.168;4.124;2022-09-30T07:09:04;56.93;;;33.63;;
19535;SDS011;9913;51.168;4.124;2022-09-30T07:11:33;98.50;;;53.77;;
19535;SDS011;9913;51.168;4.124;2022-09-30T07:14:03;59.37;;;34.00;;
19535;SDS011;9913;51.168;4.124;2022-09-30T07:16:33;63.33;;;38.93;;
19535;SDS011;9913;51.168;4.124;2022-09-30T07:19:01;49.03;;;31.17;;
19535;SDS011;9913;51.168;4.124;2022-09-30T07:21:30;30.97;;;19.80;;
19535;SDS011;9913;51.168;4.124;2022-09-30T07:23:59;39.73;;;25.93;;
19535;SDS011;9913;51.168;4.124;2022-09-30T07:26:27;41.40;;;26.57;;
19535;SDS011;9913;51.168;4.124;2022-09-30T07:28:56;35.37;;;23.60;;
19535;SDS011;9913;51.168;4.124;2022-09-30T07:31:26;22.17;;;14.27;;
19535;SDS011;9913;51.168;4.124;2022-09-30T07:34:02;25.83;;;18.10;;
19535;SDS011;9913;51.168;4.124;2022-09-30T07:36:33;20.33;;;14.43;;
19535;SDS011;9913;51.168;4.124;2022-09-30T07:39:04;18.60;;;13.70;;
19535;SDS011;9913;51.168;4.124;2022-09-30T07:41:34;19.57;;;14.87;;
19535;SDS011;9913;51.168;4.124;2022-09-30T07:44:06;23.33;;;15.30;;
19535;SDS011;9913;51.168;4.124;2022-09-30T07:46:36;21.10;;;13.70;;
19535;SDS011;9913;51.168;4.124;2022-09-30T07:49:09;19.43;;;13.60;;
19535;SDS011;9913;51.168;4.124;2022-09-30T07:51:40;17.60;;;12.50;;
19535;SDS011;9913;51.168;4.124;2022-09-30T07:54:12;17.97;;;13.33;;
19535;SDS011;9913;51.168;4.124;2022-09-30T07:56:43;19.60;;;12.57;;
19535;SDS011;9913;51.168;4.124;2022-09-30T07:59:33;18.97;;;12.90;;
19535;SDS011;9913;51.168;4.124;2022-09-30T08:02:02;15.50;;;11.40;;
19535;SDS011;9913;51.168;4.124;2022-09-30T08:04:33;16.23;;;11.63;;
19535;SDS011;9913;51.168;4.124;2022-09-30T08:07:08;17.10;;;11.90;;
19535;SDS011;9913;51.168;4.124;2022-09-30T08:09:36;18.07;;;11.67;;
19535;SDS011;9913;51.168;4.124;2022-09-30T08:12:05;15.13;;;10.70;;
19535;SDS011;9913;51.168;4.124;2022-09-30T08:14:33;17.53;;;10.90;;
19535;SDS011;9913;51.168;4.124;2022-09-30T08:17:02;16.20;;;11.40;;
19535;SDS011;9913;51.168;4.124;2022-09-30T08:19:30;14.60;;;10.87;;
19535;SDS011;9913;51.168;4.124;2022-09-30T08:22:00;14.70;;;10.43;;
19535;SDS011;9913;51.168;4.124;2022-09-30T08:24:33;19.17;;;10.87;;
19535;SDS011;9913;51.168;4.124;2022-09-30T08:27:02;15.50;;;11.30;;
19535;SDS011;9913;51.168;4.124;2022-09-30T08:29:30;14.70;;;10.53;;
19535;SDS011;9913;51.168;4.124;2022-09-30T08:32:18;15.03;;;10.00;;
19535;SDS011;9913;51.168;4.124;2022-09-30T08:34:48;14.83;;;10.50;;
19535;SDS011;9913;51.168;4.124;2022-09-30T08:37:16;13.03;;;9.83;;
19535;SDS011;9913;51.168;4.124;2022-09-30T08:39:44;14.97;;;9.83;;
19535;SDS011;9913;51.168;4.124;2022-09-30T08:42:18;14.03;;;9.63;;
19535;SDS011;9913;51.168;4.124;2022-09-30T08:45:12;14.67;;;9.30;;
19535;SDS011;9913;51.168;4.124;2022-09-30T08:47:51;13.47;;;9.57;;
19535;SDS011;9913;51.168;4.124;2022-09-30T08:50:29;17.93;;;8.77;;
19535;SDS011;9913;51.168;4.124;2022-09-30T08:53:04;12.27;;;7.93;;
19535;SDS011;9913;51.168;4.124;2022-09-30T08:55:38;11.80;;;7.40;;
19535;SDS011;9913;51.168;4.124;2022-09-30T08:58:12;11.77;;;7.60;;
19535;SDS011;9913;51.168;4.124;2022-09-30T09:00:45;11.17;;;7.70;;
19535;SDS011;9913;51.168;4.124;2022-09-30T09:03:13;11.17;;;7.83;;
19535;SDS011;9913;51.168;4.124;2022-09-30T09:05:49;11.53;;;7.77;;
19535;SDS011;9913;51.168;4.124;2022-09-30T09:08:28;12.67;;;8.50;;
19535;SDS011;9913;51.168;4.124;2022-09-30T09:11:06;11.47;;;7.73;;
19535;SDS011;9913;51.168;4.124;2022-09-30T09:13:43;11.97;;;7.90;;
19535;SDS011;9913;51.168;4.124;2022-09-30T09:16:20;12.60;;;9.13;;
19535;SDS011;9913;51.168;4.124;2022-09-30T09:18:57;9.03;;;6.87;;
19535;SDS011;9913;51.168;4.124;2022-09-30T09:21:33;12.33;;;8.70;;
19535;SDS011;9913;51.168;4.124;2022-09-30T09:24:12;11.83;;;7.67;;
19535;SDS011;9913;51.168;4.124;2022-09-30T09:26:42;8.60;;;6.13;;
19535;SDS011;9913;51.168;4.124;2022-09-30T09:29:19;11.03;;;7.10;;
19535;SDS011;9913;51.168;4.124;2022-09-30T09:31:54;8.30;;;6.30;;
19535;SDS011;9913;51.168;4.124;2022-09-30T09:34:24;8.10;;;5.83;;
19535;SDS011;9913;51.168;4.124;2022-09-30T09:36:57;8.27;;;6.07;;
19535;SDS011;9913;51.168;4.124;2022-09-30T09:39:48;8.80;;;6.37;;
19535;SDS011;9913;51.168;4.124;2022-09-30T09:42:33;8.93;;;6.07;;
19535;SDS011;9913;51.168;4.124;2022-09-30T09:45:16;10.83;;;6.13;;
19535;SDS011;9913;51.168;4.124;2022-09-30T09:47:53;9.53;;;6.20;;
19535;SDS011;9913;51.168;4.124;2022-09-30T09:50:24;9.50;;;5.67;;
19535;SDS011;9913;51.168;4.124;2022-09-30T09:53:07;9.60;;;5.60;;
19535;SDS011;9913;51.168;4.124;2022-09-30T09:55:42;8.23;;;5.53;;
19535;SDS011;9913;51.168;4.124;2022-09-30T09:58:11;8.53;;;5.43;;
19535;SDS011;9913;51.168;4.124;2022-09-30T10:00:43;9.67;;;5.60;;
19535;SDS011;9913;51.168;4.124;2022-09-30T10:03:35;7.47;;;5.23;;
19535;SDS011;9913;51.168;4.124;2022-09-30T10:06:04;6.33;;;4.63;;
19535;SDS011;9913;51.168;4.124;2022-09-30T10:08:36;6.17;;;4.47;;
19535;SDS011;9913;51.168;4.124;2022-09-30T10:11:15;8.80;;;4.60;;
19535;SDS011;9913;51.168;4.124;2022-09-30T10:13:47;6.88;;;4.65;;
19535;SDS011;9913;51.168;4.124;2022-09-30T10:16:27;5.30;;;4.00;;
19535;SDS011;9913;51.168;4.124;2022-09-30T10:19:01;7.10;;;4.03;;
19535;SDS011;9913;51.168;4.124;2022-09-30T10:21:35;4.50;;;3.60;;
19535;SDS011;9913;51.168;4.124;2022-09-30T10:24:09;5.07;;;3.93;;
19535;SDS011;9913;51.168;4.124;2022-09-30T10:26:46;4.23;;;3.57;;
19535;SDS011;9913;51.168;4.124;2022-09-30T10:29:23;4.85;;;3.85;;
19535;SDS011;9913;51.168;4.124;2022-09-30T10:31:54;5.47;;;3.70;;
19535;SDS011;9913;51.168;4.124;2022-09-30T10:34:26;4.65;;;3.70;;
19535;SDS011;9913;51.168;4.124;2022-09-30T10:36:58;4.70;;;3.57;;
19535;SDS011;9913;51.168;4.124;2022-09-30T10:39:35;5.65;;;3.50;;
19535;SDS011;9913;51.168;4.124;2022-09-30T10:42:06;5.30;;;3.25;;
19535;SDS011;9913;51.168;4.124;2022-09-30T10:44:40;5.00;;;3.45;;
19535;SDS011;9913;51.168;4.124;2022-09-30T10:47:12;5.40;;;3.60;;
19535;SDS011;9913;51.168;4.124;2022-09-30T10:49:44;3.33;;;3.00;;
19535;SDS011;9913;51.168;4.124;2022-09-30T10:52:16;4.18;;;2.60;;
19535;SDS011;9913;51.168;4.124;2022-09-30T10:54:49;4.10;;;3.25;;
19535;SDS011;9913;51.168;4.124;2022-09-30T10:57:20;5.72;;;2.85;;
19535;SDS011;9913;51.168;4.124;2022-09-30T10:59:51;5.85;;;2.80;;
19535;SDS011;9913;51.168;4.124;2022-09-30T11:02:24;5.60;;;3.25;;
19535;SDS011;9913;51.168;4.124;2022-09-30T11:05:00;5.90;;;3.00;;
19535;SDS011;9913;51.168;4.124;2022-09-30T11:07:35;4.15;;;3.10;;
19535;SDS011;9913;51.168;4.124;2022-09-30T11:10:18;4.80;;;2.83;;
19535;SDS011;9913;51.168;4.124;2022-09-30T11:12:55;5.05;;;2.92;;
19535;SDS011;9913;51.168;4.124;2022-09-30T11:15:31;3.50;;;2.70;;
19535;SDS011;9913;51.168;4.124;2022-09-30T11:18:12;4.57;;;2.90;;
19535;SDS011;9913;51.168;4.124;2022-09-30T11:20:46;6.53;;;2.65;;
19535;SDS011;9913;51.168;4.124;2022-09-30T11:23:21;4.18;;;3.03;;
19535;SDS011;9913;51.168;4.124;2022-09-30T11:25:56;3.15;;;2.30;;
19535;SDS011;9913;51.168;4.124;2022-09-30T11:28:34;4.93;;;3.35;;
19535;SDS011;9913;51.168;4.124;2022-09-30T11:31:16;5.03;;;3.50;;
19535;SDS011;9913;51.168;4.124;2022-09-30T11:33:59;6.82;;;3.70;;
19535;SDS011;9913;51.168;4.124;2022-09-30T11:36:51;4.70;;;3.97;;
19535;SDS011;9913;51.168;4.124;2022-09-30T11:39:34;4.50;;;3.83;;
19535;SDS011;9913;51.168;4.124;2022-09-30T11:42:25;5.43;;;3.70;;
19535;SDS011;9913;51.168;4.124;2022-09-30T11:45:00;5.63;;;3.28;;
19535;SDS011;9913;51.168;4.124;2022-09-30T11:47:39;5.07;;;3.92;;
19535;SDS011;9913;51.168;4.124;2022-09-30T11:50:18;5.65;;;4.03;;
19535;SDS011;9913;51.168;4.124;2022-09-30T11:53:00;5.93;;;3.63;;
19535;SDS011;9913;51.168;4.124;2022-09-30T11:55:42;4.70;;;3.88;;
19535;SDS011;9913;51.168;4.124;2022-09-30T11:58:30;5.10;;;3.85;;
19535;SDS011;9913;51.168;4.124;2022-09-30T12:01:12;6.25;;;3.58;;
19535;SDS011;9913;51.168;4.124;2022-09-30T12:03:48;4.35;;;3.50;;
19535;SDS011;9913;51.168;4.124;2022-09-30T12:06:27;7.78;;;4.40;;
19535;SDS011;9913;51.168;4.124;2022-09-30T12:09:01;6.55;;;3.78;;
19535;SDS011;9913;51.168;4.124;2022-09-30T12:11:35;4.93;;;3.53;;
19535;SDS011;9913;51.168;4.124;2022-09-30T12:14:12;4.75;;;3.47;;
19535;SDS011;9913;51.168;4.124;2022-09-30T12:16:48;6.07;;;3.67;;
19535;SDS011;9913;51.168;4.124;2022-09-30T12:19:24;5.10;;;3.65;;
19535;SDS011;9913;51.168;4.124;2022-09-30T12:21:57;4.03;;;3.60;;
19535;SDS011;9913;51.168;4.124;2022-09-30T12:24:34;7.13;;;3.83;;
19535;SDS011;9913;51.168;4.124;2022-09-30T12:27:04;4.10;;;3.38;;
19535;SDS011;9913;51.168;4.124;2022-09-30T12:29:45;5.53;;;3.28;;
19535;SDS011;9913;51.168;4.124;2022-09-30T12:32:53;5.22;;;3.53;;
19535;SDS011;9913;51.168;4.124;2022-09-30T12:45:19;4.68;;;3.67;;
19535;SDS011;9913;51.168;4.124;2022-09-30T12:48:02;6.43;;;3.58;;
19535;SDS011;9913;51.168;4.124;2022-09-30T12:50:34;5.78;;;3.90;;
19535;SDS011;9913;51.168;4.124;2022-09-30T12:53:09;5.68;;;3.95;;
19535;SDS011;9913;51.168;4.124;2022-09-30T12:55:43;5.00;;;3.88;;
19535;SDS011;9913;51.168;4.124;2022-09-30T12:58:18;6.95;;;3.92;;
19535;SDS011;9913;51.168;4.124;2022-09-30T13:01:00;10.02;;;3.80;;
19535;SDS011;9913;51.168;4.124;2022-09-30T13:03:47;5.63;;;3.40;;
19535;SDS011;9913;51.168;4.124;2022-09-30T13:06:18;5.88;;;3.63;;
19535;SDS011;9913;51.168;4.124;2022-09-30T13:11:45;5.28;;;3.55;;
19535;SDS011;9913;51.168;4.124;2022-09-30T13:14:20;7.10;;;3.60;;
19535;SDS011;9913;51.168;4.124;2022-09-30T13:17:00;5.13;;;3.33;;
19535;SDS011;9913;51.168;4.124;2022-09-30T13:19:47;7.35;;;3.55;;
19535;SDS011;9913;51.168;4.124;2022-09-30T13:25:21;6.70;;;3.65;;
19535;SDS011;9913;51.168;4.124;2022-09-30T13:27:50;5.43;;;3.58;;
19535;SDS011;9913;51.168;4.124;2022-09-30T13:30:30;4.15;;;3.40;;
19535;SDS011;9913;51.168;4.124;2022-09-30T13:33:24;4.55;;;3.63;;
19535;SDS011;9913;51.168;4.124;2022-09-30T13:35:56;5.80;;;3.22;;
19535;SDS011;9913;51.168;4.124;2022-09-30T13:38:34;3.65;;;3.30;;
19535;SDS011;9913;51.168;4.124;2022-09-30T13:41:06;5.90;;;3.45;;
19535;SDS011;9913;51.168;4.124;2022-09-30T13:43:47;4.45;;;3.30;;
19535;SDS011;9913;51.168;4.124;2022-09-30T13:46:30;3.92;;;2.90;;
19535;SDS011;9913;51.168;4.124;2022-09-30T13:49:04;4.13;;;3.10;;
19535;SDS011;9913;51.168;4.124;2022-09-30T13:51:39;4.97;;;3.70;;
19535;SDS011;9913;51.168;4.124;2022-09-30T13:54:10;4.35;;;3.20;;
19535;SDS011;9913;51.168;4.124;2022-09-30T13:56:49;7.38;;;4.15;;
19535;SDS011;9913;51.168;4.124;2022-09-30T13:59:24;6.05;;;4.35;;
19535;SDS011;9913;51.168;4.124;2022-09-30T14:02:07;5.63;;;3.67;;
19535;SDS011;9913;51.168;4.124;2022-09-30T14:05:02;5.88;;;3.60;;
19535;SDS011;9913;51.168;4.124;2022-09-30T14:07:52;4.82;;;3.20;;
19535;SDS011;9913;51.168;4.124;2022-09-30T14:10:39;5.20;;;3.40;;
19535;SDS011;9913;51.168;4.124;2022-09-30T14:13:25;4.43;;;3.40;;
19535;SDS011;9913;51.168;4.124;2022-09-30T14:16:13;5.70;;;2.75;;
19535;SDS011;9913;51.168;4.124;2022-09-30T14:19:21;2.92;;;2.33;;
19535;SDS011;9913;51.168;4.124;2022-09-30T14:22:06;3.22;;;2.20;;
19535;SDS011;9913;51.168;4.124;2022-09-30T14:24:36;3.65;;;2.42;;
19535;SDS011;9913;51.168;4.124;2022-09-30T14:27:18;3.95;;;2.90;;
19535;SDS011;9913;51.168;4.124;2022-09-30T14:29:56;5.35;;;3.03;;
19535;SDS011;9913;51.168;4.124;2022-09-30T14:32:31;6.38;;;3.38;;
19535;SDS011;9913;51.168;4.124;2022-09-30T14:35:04;10.68;;;3.85;;
19535;SDS011;9913;51.168;4.124;2022-09-30T14:37:37;3.15;;;2.85;;
19535;SDS011;9913;51.168;4.124;2022-09-30T14:40:15;4.47;;;3.22;;
19535;SDS011;9913;51.168;4.124;2022-09-30T14:42:45;3.45;;;2.85;;
19535;SDS011;9913;51.168;4.124;2022-09-30T14:45:17;3.45;;;2.63;;
19535;SDS011;9913;51.168;4.124;2022-09-30T14:47:52;4.43;;;2.65;;
19535;SDS011;9913;51.168;4.124;2022-09-30T14:50:24;3.45;;;2.15;;
19535;SDS011;9913;51.168;4.124;2022-09-30T14:52:58;3.53;;;2.10;;
19535;SDS011;9913;51.168;4.124;2022-09-30T14:55:30;4.32;;;1.77;;
19535;SDS011;9913;51.168;4.124;2022-09-30T14:58:19;3.08;;;2.08;;
19535;SDS011;9913;51.168;4.124;2022-09-30T15:00:58;3.72;;;2.25;;
19535;SDS011;9913;51.168;4.124;2022-09-30T15:03:28;3.10;;;2.08;;
19535;SDS011;9913;51.168;4.124;2022-09-30T15:05:59;2.92;;;1.50;;
19535;SDS011;9913;51.168;4.124;2022-09-30T15:08:28;3.20;;;1.80;;
19535;SDS011;9913;51.168;4.124;2022-09-30T15:10:57;2.30;;;1.65;;
19535;SDS011;9913;51.168;4.124;2022-09-30T15:13:25;2.60;;;1.80;;
19535;SDS011;9913;51.168;4.124;2022-09-30T15:15:57;3.22;;;2.00;;
19535;SDS011;9913;51.168;4.124;2022-09-30T15:18:26;2.75;;;1.95;;
19535;SDS011;9913;51.168;4.124;2022-09-30T15:20:59;3.40;;;1.80;;
19535;SDS011;9913;51.168;4.124;2022-09-30T15:23:35;2.22;;;1.55;;
19535;SDS011;9913;51.168;4.124;2022-09-30T15:26:09;4.75;;;2.63;;
19535;SDS011;9913;51.168;4.124;2022-09-30T15:28:38;5.28;;;1.90;;
19535;SDS011;9913;51.168;4.124;2022-09-30T15:31:06;2.17;;;1.73;;
19535;SDS011;9913;51.168;4.124;2022-09-30T15:33:45;2.17;;;1.60;;
19535;SDS011;9913;51.168;4.124;2022-09-30T15:36:14;2.78;;;1.80;;
19535;SDS011;9913;51.168;4.124;2022-09-30T15:38:47;2.40;;;1.60;;
19535;SDS011;9913;51.168;4.124;2022-09-30T15:41:17;3.10;;;2.03;;
19535;SDS011;9913;51.168;4.124;2022-09-30T15:43:46;3.30;;;1.80;;
19535;SDS011;9913;51.168;4.124;2022-09-30T15:46:18;2.57;;;1.70;;
19535;SDS011;9913;51.168;4.124;2022-09-30T15:48:58;2.78;;;1.63;;